^^
Grace C. Lehan Memorial Weather Station Historical Data
Daily Summary for January 15, 2021 Units:  English    Metric   Both
Daily Weekly Monthly Yearly
  High: Low: Average:
Temperature: 85.7 °F 68.7 °F 76.2 °F
Dew Point: 75.2 °F 64.6 °F 70.3 °F
Humidity: 94% 67.8% 83%
Wind Speed: 2.7mph 0mph 0.3mph
Wind Gust: 12mph - -
Wind- - SSW
Pressure: 30.02 in 29.85 in -
Precipitation: 0.03 in    
 
 
Tabular Data for January 15, 2021
Time Temperature Dew Point Pressure Wind Wind Speed Wind Gust Humidity Rainfall Rate (Hourly) solar
00:00 68.9 °F 64.6 °F 29.98 in Calm     86% 0.00 in 0 W/m2
00:09 68.9 °F 64.7 °F 29.98 in Calm     86.5% 0.00 in 0 W/m2
00:14 68.8 °F 64.8 °F 29.98 in Calm     87% 0.00 in 0 W/m2
00:19 68.8 °F 64.8 °F 29.98 in Calm     87% 0.00 in 0 W/m2
00:24 68.8 °F 64.8 °F 29.98 in Calm     87% 0.00 in 0 W/m2
00:29 68.7 °F 64.7 °F 29.98 in Calm     87% 0.00 in 0 W/m2
00:34 68.7 °F 64.7 °F 29.98 in Calm     87% 0.00 in 0 W/m2
00:39 68.7 °F 64.7 °F 29.98 in Calm     87% 0.00 in 0 W/m2
00:44 68.7 °F 64.7 °F 29.98 in Calm     87% 0.00 in 0 W/m2
00:49 68.7 °F 64.7 °F 29.97 in Calm     87% 0.00 in 0 W/m2
00:54 68.7 °F 64.9 °F 29.97 in Calm     87.8% 0.00 in 0 W/m2
00:59 68.7 °F 65 °F 29.97 in Calm     88% 0.00 in 0 W/m2
01:04 68.7 °F 65 °F 29.97 in Calm     88% 0.00 in 0 W/m2
01:09 68.7 °F 65 °F 29.97 in Calm     88% 0.00 in 0 W/m2
01:14 68.8 °F 65.1 °F 29.96 in Calm     88% 0.00 in 0 W/m2
01:19 68.8 °F 65.1 °F 29.96 in Calm     88% 0.00 in 0 W/m2
01:24 68.8 °F 65.1 °F 29.96 in Calm     88% 0.00 in 0 W/m2
01:29 68.9 °F 65.2 °F 29.96 in Calm     88% 0.00 in 0 W/m2
01:34 68.9 °F 65.2 °F 29.96 in Calm     88.1% 0.00 in 0 W/m2
01:39 69 °F 65.6 °F 29.96 in Calm     89% 0.00 in 0 W/m2
01:44 69 °F 65.7 °F 29.96 in Calm     89% 0.00 in 0 W/m2
01:49 69.1 °F 65.7 °F 29.96 in Calm     89% 0.00 in 0 W/m2
01:54 69.2 °F 65.8 °F 29.96 in Calm     89% 0.00 in 0 W/m2
01:59 69.2 °F 65.8 °F 29.95 in Calm     89% 0.00 in 0 W/m2
02:04 69.3 °F 65.9 °F 29.95 in Calm     89% 0.00 in 0 W/m2
02:09 69.3 °F 65.9 °F 29.95 in Calm     89% 0.00 in 0 W/m2
02:14 69.3 °F 65.9 °F 29.95 in Calm     89% 0.00 in 0 W/m2
02:19 69.3 °F 66 °F 29.95 in Calm     89% 0.00 in 0 W/m2
02:24 69.4 °F 66 °F 29.95 in Calm     89% 0.00 in 0 W/m2
02:29 69.4 °F 66 °F 29.95 in Calm     89% 0.00 in 0 W/m2
02:34 69.4 °F 66 °F 29.95 in Calm     89% 0.00 in 0 W/m2
02:39 69.4 °F 66 °F 29.95 in Calm     89% 0.00 in 0 W/m2
02:44 69.5 °F 66.4 °F 29.95 in Calm     89.9% 0.00 in 0 W/m2
02:49 69.5 °F 66.4 °F 29.95 in Calm     90% 0.00 in 0 W/m2
02:54 69.5 °F 66.4 °F 29.95 in Calm     90% 0.00 in 0 W/m2
02:59 69.5 °F 66.5 °F 29.95 in Calm     90% 0.00 in 0 W/m2
03:04 69.6 °F 66.5 °F 29.95 in Calm     90% 0.00 in 0 W/m2
03:09 69.6 °F 66.5 °F 29.95 in Calm     90% 0.00 in 0 W/m2
03:14 69.6 °F 66.5 °F 29.95 in Calm     90% 0.00 in 0 W/m2
03:19 69.6 °F 66.6 °F 29.95 in Calm     90% 0.00 in 0 W/m2
03:24 69.7 °F 66.6 °F 29.94 in Calm     90% 0.00 in 0 W/m2
03:29 69.7 °F 66.7 °F 29.94 in Calm     90% 0.00 in 0 W/m2
03:34 69.8 °F 67 °F 29.94 in Calm     90.8% 0.00 in 0 W/m2
03:39 69.8 °F 67.1 °F 29.94 in Calm     91% 0.00 in 0 W/m2
03:44 69.8 °F 67 °F 29.94 in Calm     90.8% 0.00 in 0 W/m2
03:49 69.8 °F 67.1 °F 29.94 in Calm     91% 0.00 in 0 W/m2
03:54 69.9 °F 67.1 °F 29.94 in Calm     91% 0.00 in 0 W/m2
03:59 69.9 °F 67.2 °F 29.93 in Calm     91% 0.00 in 0 W/m2
04:00 69.9 °F 67.2 °F 29.93 in Calm     91% 0.00 in 0 W/m2
04:09 70.1 °F 67.4 °F 29.93 in Calm     91% 0.00 in 0 W/m2
04:14 70.1 °F 67.4 °F 29.93 in Calm     91% 0.00 in 0 W/m2
04:19 70.1 °F 67.4 °F 29.93 in Calm     91% 0.00 in 0 W/m2
04:24 70.1 °F 67.4 °F 29.93 in Calm     91% 0.00 in 0 W/m2
04:29 70.2 °F 67.7 °F 29.93 in Calm     91.7% 0.00 in 0 W/m2
04:34 70.3 °F 67.8 °F 29.93 in Calm     92% 0.00 in 0 W/m2
04:39 70.4 °F 67.9 °F 29.93 in Calm     92% 0.00 in 0 W/m2
04:44 70.4 °F 68 °F 29.93 in Calm     92% 0.00 in 0 W/m2
04:49 70.5 °F 68.1 °F 29.93 in Calm     92% 0.00 in 0 W/m2
04:54 70.5 °F 68.1 °F 29.93 in Calm     92% 0.00 in 0 W/m2
04:59 70.6 °F 68.1 °F 29.93 in Calm     92% 0.00 in 0 W/m2
05:04 70.7 °F 68.5 °F 29.93 in Calm   1 mph 92.7% 0.00 in 0 W/m2
05:09 70.9 °F 68.8 °F 29.93 in Calm   1 mph 93% 0.00 in 0 W/m2
05:14 71.1 °F 69 °F 29.93 in Calm   1 mph 93% 0.00 in 0 W/m2
05:19 71.2 °F 69.1 °F 29.93 in Calm   1 mph 93% 0.00 in 0 W/m2
05:24 71.3 °F 69.2 °F 29.93 in Calm   1 mph 93% 0.00 in 0 W/m2
05:29 71.3 °F 69.2 °F 29.93 in Calm   1 mph 93% 0.00 in 0 W/m2
05:34 71.4 °F 69.3 °F 29.93 in Calm   1 mph 93% 0.00 in 0 W/m2
05:39 71.4 °F 69.3 °F 29.92 in Calm     93% 0.00 in 0 W/m2
05:44 71.5 °F 69.7 °F 29.92 in Calm     94% 0.00 in 0 W/m2
05:49 71.5 °F 69.7 °F 29.92 in Calm     94% 0.00 in 0 W/m2
05:54 71.5 °F 69.7 °F 29.93 in Calm     94% 0.00 in 0 W/m2
05:59 71.5 °F 69.7 °F 29.93 in Calm     94% 0.00 in 0 W/m2
06:04 71.6 °F 69.8 °F 29.93 in Calm     94% 0.00 in 0 W/m2
06:09 71.6 °F 69.8 °F 29.93 in Calm   1 mph 94% 0.00 in 0 W/m2
06:14 71.6 °F 69.8 °F 29.93 in Calm   1 mph 94% 0.00 in 0 W/m2
06:19 71.6 °F 69.8 °F 29.93 in Calm   1 mph 94% 0.00 in 0 W/m2
06:24 71.5 °F 69.7 °F 29.93 in Calm   1 mph 94% 0.00 in 0 W/m2
06:29 71.5 °F 69.7 °F 29.93 in Calm   1 mph 94% 0.00 in 0 W/m2
06:34 71.5 °F 69.7 °F 29.93 in Calm   1 mph 94% 0.00 in 0 W/m2
06:39 71.5 °F 69.7 °F 29.93 in Calm     94% 0.00 in 0 W/m2
06:44 71.5 °F 69.7 °F 29.93 in Calm     94% 0.00 in 5 W/m2
06:49 71.5 °F 69.7 °F 29.93 in Calm     94% 0.00 in 5 W/m2
06:54 71.5 °F 69.7 °F 29.93 in Calm     94% 0.00 in 5 W/m2
06:59 71.6 °F 69.8 °F 29.93 in Calm     94% 0.00 in 7 W/m2
07:04 71.6 °F 69.8 °F 29.93 in Calm     94% 0.00 in 12 W/m2
07:09 71.7 °F 69.9 °F 29.93 in Calm     94% 0.00 in 12 W/m2
07:14 71.8 °F 69.9 °F 29.93 in Calm     94% 0.00 in 12 W/m2
07:19 71.9 °F 70 °F 29.93 in Calm     93.8% 0.00 in 16 W/m2
07:24 71.9 °F 69.8 °F 29.93 in Calm     93% 0.00 in 19 W/m2
07:29 72 °F 69.8 °F 29.93 in Calm     93% 0.00 in 32 W/m2
07:34 72.1 °F 69.9 °F 29.93 in Calm     93% 0.00 in 32 W/m2
07:39 72.2 °F 70 °F 29.93 in Calm     93% 0.00 in 44 W/m2
07:44 72.2 °F 70.1 °F 29.93 in Calm     93% 0.00 in 40 W/m2
07:49 72.3 °F 70.2 °F 29.93 in Calm     93% 0.00 in 44 W/m2
07:54 72.4 °F 70.3 °F 29.93 in Calm     93% 0.00 in 47 W/m2
07:59 72.6 °F 70.4 °F 29.93 in Calm     93% 0.00 in 49 W/m2
08:00 72.6 °F 70.5 °F 29.93 in Calm     93% 0.00 in 46 W/m2
08:09 72.7 °F 70.4 °F 29.93 in Calm     92.5% 0.00 in 46 W/m2
08:14 72.8 °F 70.6 °F 29.93 in SSW 0.1 mph 4 mph 92.8% 0.00 in 58 W/m2
08:19 72.9 °F 70.6 °F 29.93 in Calm   4 mph 92.2% 0.00 in 63 W/m2
08:24 73 °F 70.6 °F 29.93 in Calm   4 mph 92% 0.00 in 62 W/m2
08:29 73.1 °F 70.6 °F 29.93 in Calm   4 mph 92% 0.00 in 47 W/m2
08:34 73.2 °F 70.7 °F 29.93 in Calm   4 mph 92% 0.00 in 69 W/m2
08:39 73.3 °F 70.8 °F 29.93 in Calm     92% 0.00 in 69 W/m2
08:44 73.4 °F 70.9 °F 29.93 in Calm     92% 0.00 in 81 W/m2
08:49 73.5 °F 71 °F 29.93 in Calm   1 mph 92% 0.00 in 113 W/m2
08:54 73.6 °F 71.1 °F 29.93 in Calm   1 mph 92% 0.00 in 116 W/m2
08:59 73.7 °F 71.2 °F 29.93 in Calm   1 mph 92% 0.00 in 83 W/m2
09:04 73.9 °F 71.1 °F 29.93 in Calm   1 mph 91% 0.00 in 102 W/m2
09:09 74 °F 71.3 °F 29.93 in Calm   1 mph 91.2% 0.00 in 130 W/m2
09:14 74.2 °F 71.5 °F 29.93 in Calm   1 mph 91.3% 0.00 in 128 W/m2
09:19 74.4 °F 71.6 °F 29.93 in Calm   1 mph 91% 0.00 in 223 W/m2
09:24 74.6 °F 71.8 °F 29.93 in Calm   1 mph 91% 0.00 in 223 W/m2
09:29 74.8 °F 71.8 °F 29.93 in Calm   1 mph 90.2% 0.00 in 221 W/m2
09:34 75.1 °F 71.9 °F 29.93 in Calm   1 mph 90% 0.00 in 204 W/m2
09:39 75.3 °F 72.2 °F 29.93 in Calm   2 mph 90% 0.00 in 236 W/m2
09:44 75.6 °F 72.4 °F 29.93 in Calm   2 mph 89.7% 0.00 in 237 W/m2
09:49 76 °F 72.6 °F 29.93 in Calm   2 mph 89.1% 0.00 in 237 W/m2
09:54 76.3 °F 72.6 °F 29.93 in Calm   2 mph 88.2% 0.00 in 316 W/m2
09:59 76.6 °F 72.8 °F 29.93 in Calm   2 mph 87.9% 0.00 in 221 W/m2
10:04 77.1 °F 73 °F 29.93 in Calm   2 mph 87.2% 0.00 in 403 W/m2
10:09 77.5 °F 73 °F 29.93 in Calm     86.1% 0.00 in 304 W/m2
10:14 77.8 °F 73.1 °F 29.93 in Calm     85.5% 0.00 in 304 W/m2
10:19 78.2 °F 73.3 °F 29.92 in Calm     85% 0.00 in 557 W/m2
10:24 78.6 °F 73.4 °F 29.93 in SW 0.1 mph 2 mph 84.1% 0.00 in 564 W/m2
10:29 79.2 °F 73.6 °F 29.92 in SW 0.1 mph 2 mph 83% 0.00 in 612 W/m2
10:34 79.9 °F 74 °F 29.93 in SW 0.1 mph 2 mph 82.1% 0.00 in 612 W/m2
10:39 80.4 °F 74 °F 29.93 in SW 0.1 mph 3 mph 80.8% 0.00 in 577 W/m2
10:44 80.6 °F 73.7 °F 29.93 in Calm   4 mph 79.5% 0.00 in 299 W/m2
10:49 80.7 °F 73.8 °F 29.92 in WSW 0.6 mph 9 mph 79.6% 0.00 in 239 W/m2
10:54 80.7 °F 73.8 °F 29.92 in Calm   9 mph 79.6% 0.00 in 464 W/m2
10:59 80.9 °F 74.2 °F 29.92 in SSE 0.1 mph 9 mph 80.2% 0.00 in 279 W/m2
11:04 81 °F 73.9 °F 29.92 in South 0.2 mph 9 mph 79.1% 0.00 in 629 W/m2
11:09 81.3 °F 73.8 °F 29.92 in SSW 0.2 mph 4 mph 78.1% 0.00 in 643 W/m2
11:10 81.4 °F 73.9 °F 29.92 in Calm   4 mph 78% 0.00 in 643 W/m2
11:30 82.8 °F 74.9 °F 29.92 in Calm   5 mph 77% 0.00 in 610 W/m2
12:04 83.5 °F 75.1 °F 29.92 in Calm   5 mph 75.9% 0.00 in 610 W/m2
12:09 83.8 °F 75.2 °F 29.92 in WSW 1 mph 5 mph 75.5% 0.00 in 185 W/m2
12:14 84.2 °F 74.9 °F 29.92 in WSW 0.7 mph 5 mph 73.8% 0.00 in 234 W/m2
12:19 84.6 °F 74.9 °F 29.92 in WSW 0.6 mph 5 mph 72.8% 0.00 in 294 W/m2
12:24 84.8 °F 74.8 °F 29.91 in WSW 0.3 mph 5 mph 72.1% 0.00 in 297 W/m2
12:29 84.9 °F 74.8 °F 29.91 in South 0.3 mph 5 mph 71.8% 0.00 in 318 W/m2
12:34 84.8 °F 74.3 °F 29.91 in South 0.2 mph 5 mph 71% 0.00 in 346 W/m2
12:39 84.6 °F 74.2 °F 29.91 in SSE 0.3 mph 4 mph 71% 0.00 in 274 W/m2
12:44 84.4 °F 74.4 °F 29.90 in South 0.6 mph 4 mph 71.8% 0.00 in 274 W/m2
12:49 84.4 °F 74.3 °F 29.90 in SW 1.3 mph 7 mph 71.9% 0.00 in 243 W/m2
12:54 84.4 °F 74.4 °F 29.90 in SW 0.3 mph 7 mph 71.9% 0.00 in 229 W/m2
12:59 84.4 °F 74.6 °F 29.90 in SW 0.1 mph 7 mph 72.5% 0.00 in 257 W/m2
13:04 84.5 °F 74.6 °F 29.90 in WSW 0.4 mph 7 mph 72.3% 0.00 in 272 W/m2
13:09 84.6 °F 74.3 °F 29.89 in SW 0.8 mph 5 mph 71.4% 0.00 in 272 W/m2
13:14 84.7 °F 74.3 °F 29.89 in South 0.5 mph 5 mph 71.2% 0.00 in 230 W/m2
13:19 84.5 °F 74.1 °F 29.89 in South 0.8 mph 5 mph 71% 0.00 in 234 W/m2
13:24 84.4 °F 74.3 °F 29.88 in SSW 0.9 mph 5 mph 71.8% 0.00 in 234 W/m2
13:29 84.3 °F 74.3 °F 29.88 in SSW 0.4 mph 5 mph 72% 0.00 in 225 W/m2
13:34 84.3 °F 74.3 °F 29.88 in SSW 1.2 mph 5 mph 72% 0.00 in 278 W/m2
13:39 84.4 °F 74.4 °F 29.88 in South 0.5 mph 4 mph 72.2% 0.00 in 193 W/m2
13:44 84.5 °F 74.2 °F 29.87 in South 1.9 mph 6 mph 71.3% 0.00 in 181 W/m2
13:49 84.5 °F 74.2 °F 29.87 in South 2.5 mph 9 mph 71.3% 0.00 in 167 W/m2
13:54 84.5 °F 74 °F 29.86 in South 1.5 mph 9 mph 70.9% 0.00 in 148 W/m2
13:59 84.4 °F 74.1 °F 29.86 in South 0.8 mph 10 mph 71.2% 0.00 in 149 W/m2
14:04 84.5 °F 74.4 °F 29.86 in South 1.4 mph 10 mph 71.7% 0.00 in 160 W/m2
14:09 84.5 °F 73.8 °F 29.86 in South 1.3 mph 6 mph 70.3% 0.00 in 139 W/m2
14:14 84.5 °F 73.7 °F 29.86 in South 2.7 mph 7 mph 70.2% 0.00 in 178 W/m2
14:19 84.5 °F 73.5 °F 29.85 in SSW 2.1 mph 7 mph 69.7% 0.00 in 490 W/m2
14:24 84.5 °F 73.5 °F 29.86 in South 1.4 mph 7 mph 69.5% 0.00 in 640 W/m2
14:29 84.7 °F 73.2 °F 29.86 in South 2 mph 12 mph 68.6% 0.00 in 517 W/m2
14:34 84.7 °F 73.3 °F 29.86 in SSW 1.2 mph 12 mph 68.8% 0.00 in 292 W/m2
14:39 84.7 °F 73.1 °F 29.86 in SW 1.3 mph 9 mph 68.4% 0.00 in 241 W/m2
14:44 84.6 °F 73 °F 29.86 in SW 1 mph 9 mph 68.2% 0.00 in 330 W/m2
14:49 84.6 °F 73 °F 29.86 in South 0.9 mph 9 mph 68.2% 0.00 in 485 W/m2
14:54 84.7 °F 73.3 °F 29.86 in SSW 0.6 mph 9 mph 68.7% 0.00 in 387 W/m2
14:59 84.8 °F 73.1 °F 29.86 in South 0.8 mph 9 mph 68% 0.00 in 478 W/m2
15:04 84.8 °F 73.2 °F 29.86 in South 0.2 mph 9 mph 68.3% 0.00 in 362 W/m2
15:09 84.9 °F 73.4 °F 29.86 in South 1 mph 5 mph 68.6% 0.00 in 403 W/m2
15:14 85 °F 73.7 °F 29.86 in SSW 0.5 mph 5 mph 68.9% 0.00 in 283 W/m2
15:19 85.1 °F 73.7 °F 29.86 in SSW 0.1 mph 5 mph 68.7% 0.00 in 461 W/m2
15:24 85.2 °F 73.6 °F 29.86 in SSW 0.5 mph 5 mph 68.3% 0.00 in 221 W/m2
15:29 85.2 °F 73.8 °F 29.86 in SSW 0.2 mph 5 mph 68.8% 0.00 in 362 W/m2
15:34 85.2 °F 73.6 °F 29.86 in SSW 1.2 mph 6 mph 68.3% 0.00 in 432 W/m2
15:39 85.2 °F 73.5 °F 29.86 in Calm   6 mph 68.1% 0.00 in 515 W/m2
15:44 85.3 °F 73.9 °F 29.86 in South 0.9 mph 6 mph 68.6% 0.00 in 564 W/m2
15:49 85.6 °F 74 °F 29.86 in South 0.8 mph 6 mph 68.4% 0.00 in 508 W/m2
15:54 85.7 °F 73.9 °F 29.86 in SSW 0.9 mph 6 mph 67.8% 0.00 in 508 W/m2
15:59 85.6 °F 73.8 °F 29.86 in SW 0.5 mph 6 mph 68% 0.00 in 132 W/m2
16:04 85.3 °F 73.6 °F 29.86 in SW 0.3 mph 1 mph 68% 0.00 in 121 W/m2
16:09 85.2 °F 73.5 °F 29.86 in South 1.6 mph 6 mph 68.2% 0.00 in 121 W/m2
16:14 85.1 °F 73.6 °F 29.86 in SW 0.6 mph 6 mph 68.6% 0.00 in 120 W/m2
16:19 85.1 °F 73.6 °F 29.86 in SSW 1.3 mph 6 mph 68.7% 0.00 in 109 W/m2
16:24 85.1 °F 73.6 °F 29.86 in SSW 1.2 mph 6 mph 68.5% 0.00 in 90 W/m2
16:29 85.1 °F 73.6 °F 29.86 in SSW 1 mph 6 mph 68.7% 0.00 in 84 W/m2
16:34 85 °F 73.7 °F 29.87 in SSW 0.8 mph 6 mph 69% 0.00 in 83 W/m2
16:39 85 °F 73.4 °F 29.87 in South 1 mph 7 mph 68.4% 0.00 in 77 W/m2
16:44 84.9 °F 73.5 °F 29.86 in South 1.1 mph 7 mph 68.8% 0.00 in 70 W/m2
16:49 84.8 °F 73.4 °F 29.86 in SSW 1.6 mph 9 mph 68.8% 0.00 in 62 W/m2
16:54 84.5 °F 73.1 °F 29.86 in SSW 0.9 mph 9 mph 68.8% 0.00 in 51 W/m2
16:59 84.2 °F 73 °F 29.86 in SSW 1.5 mph 9 mph 69% 0.00 in 49 W/m2
17:04 83.9 °F 73.1 °F 29.86 in South 1.2 mph 9 mph 70% 0.00 in 53 W/m2
17:09 83.8 °F 73.2 °F 29.86 in SSW 0.5 mph 7 mph 70.5% 0.00 in 51 W/m2
17:14 83.7 °F 73.4 °F 29.86 in SSW 0.4 mph 7 mph 71.2% 0.00 in 47 W/m2
17:19 83.6 °F 73.3 °F 29.86 in SSW 0.5 mph 9 mph 71.2% 0.00 in 49 W/m2
17:24 83.4 °F 73 °F 29.86 in South 1.5 mph 9 mph 71% 0.00 in 49 W/m2
17:29 83.3 °F 73.1 °F 29.87 in South 0.9 mph 9 mph 71.4% 0.00 in 49 W/m2
17:34 83.2 °F 73.2 °F 29.87 in South 0.6 mph 9 mph 71.8% 0.00 in 40 W/m2
17:39 83.1 °F 73.1 °F 29.87 in SSW 0.2 mph 4 mph 72% 0.00 in 40 W/m2
17:44 83 °F 73.5 °F 29.88 in SSW 0.1 mph 4 mph 73% 0.00 in 40 W/m2
17:49 82.9 °F 73.2 °F 29.88 in SSW 0.7 mph 4 mph 72.7% 0.00 in 35 W/m2
17:54 82.7 °F 73.1 °F 29.88 in SW 0.5 mph 6 mph 72.6% 0.00 in 32 W/m2
17:59 82.6 °F 72.7 °F 29.88 in SW 1.5 mph 10 mph 72.2% 0.00 in 28 W/m2
18:04 82.4 °F 72 °F 29.89 in SW 1.5 mph 10 mph 71% 0.00 in 23 W/m2
18:09 82.1 °F 71.6 °F 29.89 in SW 2.4 mph 11 mph 70.6% 0.00 in 23 W/m2
18:14 81.9 °F 71.3 °F 29.89 in WSW 0.3 mph 11 mph 70.4% 0.00 in 19 W/m2
18:19 81.8 °F 71.6 °F 29.88 in South 0.6 mph 11 mph 71.4% 0.00 in 16 W/m2
18:24 81.5 °F 71.6 °F 29.89 in SW 0.5 mph 11 mph 71.8% 0.00 in 12 W/m2
18:29 81.4 °F 71.6 °F 29.89 in Calm   11 mph 72.3% 0.00 in 7 W/m2
18:34 81.2 °F 71.7 °F 29.89 in Calm   11 mph 73% 0.00 in 7 W/m2
18:39 80.9 °F 71.4 °F 29.89 in SSW 0.4 mph 5 mph 73% 0.00 in 5 W/m2
18:44 80.7 °F 71.3 °F 29.90 in South 0.2 mph 5 mph 73.2% 0.00 in 5 W/m2
18:49 80.4 °F 71.4 °F 29.90 in SSW 0.3 mph 5 mph 74% 0.00 in 0 W/m2
18:54 80.2 °F 71.2 °F 29.91 in SW 0.4 mph 5 mph 74% 0.00 in 0 W/m2
18:59 80 °F 71 °F 29.91 in SSW 0.4 mph 5 mph 74% 0.00 in 0 W/m2
19:04 79.8 °F 70.8 °F 29.91 in SW 0.5 mph 9 mph 74% 0.00 in 0 W/m2
19:09 79.7 °F 71 °F 29.91 in South 0.4 mph 9 mph 74.9% 0.00 in 0 W/m2
19:14 79.5 °F 70.9 °F 29.92 in South 0.3 mph 9 mph 75% 0.00 in 0 W/m2
19:19 79.3 °F 70.9 °F 29.92 in Calm   9 mph 75.6% 0.00 in 0 W/m2
19:24 79.1 °F 70.9 °F 29.92 in SSW 0.4 mph 9 mph 76% 0.00 in 0 W/m2
19:29 78.9 °F 71.1 °F 29.92 in South 0.1 mph 9 mph 77% 0.00 in 0 W/m2
19:34 78.8 °F 71.1 °F 29.92 in Calm   9 mph 77.5% 0.00 in 0 W/m2
19:39 78.6 °F 71.2 °F 29.92 in Calm     78.1% 0.00 in 0 W/m2
19:44 78.5 °F 71.4 °F 29.93 in Calm     79% 0.00 in 0 W/m2
19:49 78.3 °F 71.3 °F 29.93 in Calm     79% 0.00 in 0 W/m2
19:54 78.2 °F 71.4 °F 29.93 in Calm     79.9% 0.00 in 0 W/m2
19:59 78 °F 71.3 °F 29.94 in Calm     80% 0.00 in 0 W/m2
20:00 77.9 °F 71.2 °F 29.94 in Calm     80% 0.00 in 0 W/m2
20:09 77.7 °F 71.4 °F 29.94 in Calm     81% 0.00 in 0 W/m2
20:14 77.6 °F 71.5 °F 29.94 in Calm     81.6% 0.00 in 0 W/m2
20:19 77.5 °F 71.6 °F 29.95 in Calm     82% 0.00 in 0 W/m2
20:24 77.4 °F 71.5 °F 29.96 in West 0.7 mph 4 mph 82% 0.00 in 0 W/m2
20:29 77.3 °F 71.3 °F 29.97 in WNW 1.4 mph 6 mph 81.8% 0.00 in 0 W/m2
20:34 77.2 °F 70.7 °F 29.97 in NW 1.1 mph 9 mph 80.5% 0.00 in 0 W/m2
20:39 77 °F 69.4 °F 29.97 in NNW 1.2 mph 9 mph 77.2% 0.00 in 0 W/m2
20:44 76.9 °F 68.5 °F 29.98 in NNW 0.6 mph 9 mph 75.1% 0.00 in 0 W/m2
20:49 76.9 °F 68 °F 29.98 in NW 0.8 mph 9 mph 74% 0.00 in 0 W/m2
20:54 76.9 °F 68.1 °F 29.98 in NW 0.9 mph 9 mph 74.2% 0.00 in 0 W/m2
20:59 76.9 °F 68 °F 29.99 in WNW 1.1 mph 9 mph 74% 0.00 in 0 W/m2
21:04 76.8 °F 67.8 °F 29.99 in WNW 0.2 mph 9 mph 73.7% 0.00 in 0 W/m2
21:09 76.7 °F 68.5 °F 30.00 in WNW 0.4 mph 3 mph 75.9% 0.02 in 0 W/m2
21:14 76.5 °F 69.2 °F 30.00 in Calm   3 mph 78.1% 0.03 in 0 W/m2
21:19 76.1 °F 69.3 °F 30.00 in Calm   3 mph 79.3% 0.03 in 0 W/m2
21:24 75.7 °F 69.3 °F 30.00 in Calm   3 mph 80.5% 0.03 in 0 W/m2
21:29 75.2 °F 69.2 °F 30.00 in Calm   3 mph 81.6% 0.03 in 0 W/m2
21:34 74.7 °F 68.8 °F 30.00 in Calm   3 mph 82.1% 0.03 in 0 W/m2
21:39 74.2 °F 68.8 °F 29.99 in Calm     83.3% 0.03 in 0 W/m2
21:44 73.9 °F 68.7 °F 30.00 in Calm     84% 0.03 in 0 W/m2
21:49 73.6 °F 68.5 °F 30.00 in Calm     84.1% 0.03 in 0 W/m2
21:54 73.2 °F 68.4 °F 30.00 in Calm     85.1% 0.03 in 0 W/m2
21:59 72.9 °F 68.5 °F 30.00 in Calm     86% 0.03 in 0 W/m2
22:04 72.6 °F 68.5 °F 30.01 in Calm     86.9% 0.03 in 0 W/m2
22:09 72.3 °F 68.5 °F 30.01 in Calm     87.7% 0.03 in 0 W/m2
22:14 72.1 °F 68.5 °F 30.01 in Calm     88.3% 0.03 in 0 W/m2
22:19 72 °F 68.6 °F 30.01 in Calm     89% 0.03 in 0 W/m2
22:24 71.8 °F 68.6 °F 30.01 in Calm     89.6% 0.03 in 0 W/m2
22:29 71.7 °F 68.6 °F 30.01 in Calm     90% 0.03 in 0 W/m2
22:34 71.6 °F 68.5 °F 30.01 in Calm   1 mph 90.1% 0.03 in 0 W/m2
22:39 71.5 °F 68.7 °F 30.01 in Calm   1 mph 91% 0.00 in 0 W/m2
22:44 71.3 °F 68.3 °F 30.01 in Calm   1 mph 90.4% 0.00 in 0 W/m2
22:49 71.1 °F 68.2 °F 30.02 in Calm   1 mph 90.4% 0.00 in 0 W/m2
22:54 71.1 °F 68.3 °F 30.02 in Calm   1 mph 91% 0.00 in 0 W/m2
22:59 71.1 °F 68.3 °F 30.02 in Calm   1 mph 91% 0.00 in 0 W/m2
23:04 71.1 °F 68.3 °F 30.02 in Calm   1 mph 91% 0.00 in 0 W/m2
23:09 71.1 °F 68.3 °F 30.02 in Calm     91% 0.00 in 0 W/m2
23:14 71 °F 68.3 °F 30.02 in Calm     91% 0.00 in 0 W/m2
23:19 70.9 °F 68.1 °F 30.02 in Calm     91% 0.00 in 0 W/m2
23:24 70.8 °F 68 °F 30.02 in Calm     91% 0.00 in 0 W/m2
23:29 70.7 °F 67.9 °F 30.01 in Calm     91% 0.00 in 0 W/m2
23:34 70.6 °F 67.8 °F 30.01 in Calm     91% 0.00 in 0 W/m2
23:39 70.4 °F 67.6 °F 30.00 in Calm     90.6% 0.00 in 0 W/m2
23:44 70.3 °F 67.3 °F 30.01 in Calm     90% 0.00 in 0 W/m2
23:49 70.3 °F 67.2 °F 30.00 in Calm     90% 0.00 in 0 W/m2
23:54 70.3 °F 67.4 °F 30.01 in Calm     90.6% 0.00 in 0 W/m2
23:59 70.2 °F 67.5 °F 30.00 in Calm     91% 0.00 in 0 W/m2
Hartford County Weather
Compliments of Weather Underground - 2 mb